Time;durP1;ratioP1;P1;durP2;ratioP2;P2;SDS_P1;SDS_P2;PMS_P1;PMS_P2;Temp;Humidity;BMP_temperature;BMP_pressure;BME280_temperature;BME280_humidity;BME280_pressure;Samples;Min_cycle;Max_cycle;Signal;HPM_P1;HPM_P2
2022/09/03 00:00:15;;;;;;;;;;;;;;;17.35;46.68;101260.91;5004552;28;19956;-67
2022/09/03 00:02:44;;;;;;;;;;;;;;;17.38;47.01;101255.38;5004102;28;19929;-67
2022/09/03 00:05:15;;;;;;;;;;;;;;;17.56;46.27;101257.66;5007939;28;19925;-67
2022/09/03 00:07:46;;;;;;;;;;;;;;;17.55;46.46;101248.03;5005824;28;20369;-67
2022/09/03 00:10:14;;;;;;;;;;;;;;;17.47;46.24;101262.69;5004571;28;20463;-67
2022/09/03 00:12:42;;;;;;;;;;;;;;;17.59;46.37;101254.84;5005158;28;20008;-67
2022/09/03 00:15:10;;;;;;;;;;;;;;;17.61;46.11;101244.94;5006475;28;19949;-67
2022/09/03 00:17:39;;;;;;;;;;;;;;;17.77;45.81;101245.53;5004671;28;19929;-67
2022/09/03 00:20:10;;;;;;;;;;;;;;;17.58;46.21;101242.53;5004189;28;20355;-67
2022/09/03 00:22:39;;;;;;;;;;;;;;;17.74;45.75;101240.44;5004690;28;19972;-67
2022/09/03 00:25:09;;;;;;;;;;;;;;;17.46;46.32;101246.88;5005994;28;20015;-67
2022/09/03 00:27:39;;;;;;;;;;;;;;;17.37;46.36;101248.38;5005190;28;19921;-67
2022/09/03 00:30:08;;;;;;;;;;;;;;;17.04;47.16;101262.22;5004254;28;19925;-67
2022/09/03 00:32:39;;;;;;;;;;;;;;;16.93;47.58;101242.75;5006158;28;20278;-67
2022/09/03 00:35:09;;;;;;;;;;;;;;;16.85;47.68;101248.56;5006205;28;19972;-67
2022/09/03 00:37:35;;;;;;;;;;;;;;;16.63;48.38;101244.91;5005709;28;20015;-67
2022/09/03 00:40:02;;;;;;;;;;;;;;;16.60;48.42;101240.63;5004653;28;19969;-67
2022/09/03 00:42:38;;;;;;;;;;;;;;;16.72;48.22;101238.94;5006481;28;19928;-67
2022/09/03 00:45:10;;;;;;;;;;;;;;;16.80;47.95;101236.63;5005865;28;19988;-67
2022/09/03 00:47:42;;;;;;;;;;;;;;;16.89;48.09;101225.38;5005235;28;19922;-67
2022/09/03 00:50:14;;;;;;;;;;;;;;;16.91;47.70;101226.13;5004664;28;19987;-67
2022/09/03 00:52:48;;;;;;;;;;;;;;;16.73;48.03;101224.75;5005176;28;20039;-67
2022/09/03 00:55:21;;;;;;;;;;;;;;;16.75;47.99;101228.13;5002594;28;20270;-67
2022/09/03 00:57:55;;;;;;;;;;;;;;;16.93;47.51;101227.69;4995924;28;20378;-67
2022/09/03 01:00:22;;;;;;;;;;;;;;;16.90;47.73;101224.41;5004679;28;19936;-67
2022/09/03 01:02:55;;;;;;;;;;;;;;;16.81;47.76;101225.94;5003090;28;19965;-67
2022/09/03 01:05:28;;;;;;;;;;;;;;;16.15;49.77;101233.16;5004304;28;20008;-67
2022/09/03 01:08:01;;;;;;;;;;;;;;;16.50;48.84;101224.50;5005443;28;20022;-67
2022/09/03 01:10:30;;;;;;;;;;;;;;;16.45;48.95;101225.75;5009448;28;20039;-67
2022/09/03 01:13:02;;;;;;;;;;;;;;;16.48;48.65;101230.88;5009734;28;19992;-67
2022/09/03 01:15:31;;;;;;;;;;;;;;;16.46;48.88;101219.53;5005914;28;20420;-67
2022/09/03 01:18:04;;;;;;;;;;;;;;;16.48;48.63;101221.09;4997976;28;19975;-67
2022/09/03 01:20:38;;;;;;;;;;;;;;;16.44;49.03;101224.91;5007479;28;19964;-67
2022/09/03 01:23:23;;;;;;;;;;;;;;;16.62;48.34;101219.34;5001822;28;19929;-67
2022/09/03 01:25:52;;;;;;;;;;;;;;;16.67;48.39;101219.88;5007382;28;19983;-67
2022/09/03 01:28:22;;;;;;;;;;;;;;;16.42;48.91;101215.41;5008541;28;20290;-67
2022/09/03 01:30:51;;;;;;;;;;;;;;;16.39;48.70;101215.59;5007172;28;20519;-67
2022/09/03 01:33:20;;;;;;;;;;;;;;;16.43;48.88;101223.25;5009861;28;19921;-67
2022/09/03 01:35:48;;;;;;;;;;;;;;;16.25;49.16;101224.50;5008198;28;20389;-68
2022/09/03 01:38:20;;;;;;;;;;;;;;;16.33;49.18;101216.03;5010166;28;19921;-67
2022/09/03 01:40:51;;;;;;;;;;;;;;;16.29;49.03;101218.03;5006801;28;19957;-67
2022/09/03 01:43:38;;;;;;;;;;;;;;;16.19;49.49;101216.94;5008829;28;19956;-67
2022/09/03 01:46:08;;;;;;;;;;;;;;;16.45;48.66;101221.31;5007513;28;19922;-67
2022/09/03 01:48:42;;;;;;;;;;;;;;;15.99;50.01;101217.44;5007668;28;19976;-67
2022/09/03 01:51:12;;;;;;;;;;;;;;;16.13;49.77;101225.31;4994741;28;20464;-67
2022/09/03 01:53:50;;;;;;;;;;;;;;;16.31;49.40;101224.06;4991661;28;19949;-67
2022/09/03 01:56:22;;;;;;;;;;;;;;;16.04;49.74;101231.19;5005549;28;20309;-67
2022/09/03 01:58:55;;;;;;;;;;;;;;;16.10;49.79;101228.16;5007945;28;19968;-67
2022/09/03 02:01:24;;;;;;;;;;;;;;;16.06;49.70;101227.53;5005417;28;19921;-67
2022/09/03 02:03:51;;;;;;;;;;;;;;;16.03;50.05;101232.16;5008403;28;19925;-67
2022/09/03 02:06:19;;;;;;;;;;;;;;;15.95;49.95;101226.53;5008212;28;21725;-67
2022/09/03 02:08:45;;;;;;;;;;;;;;;16.09;49.92;101229.09;5005958;28;19929;-67
2022/09/03 02:11:12;;;;;;;;;;;;;;;15.91;50.42;101233.81;5006566;28;19991;-67
2022/09/03 02:13:40;;;;;;;;;;;;;;;16.08;49.88;101235.34;5007441;28;21385;-67
2022/09/03 02:16:11;;;;;;;;;;;;;;;16.25;49.19;101224.50;5005613;28;19963;-67
2022/09/03 02:18:41;;;;;;;;;;;;;;;15.97;50.07;101230.75;5005715;28;19975;-67
2022/09/03 02:21:09;;;;;;;;;;;;;;;16.09;49.62;101234.41;4991741;28;19922;-67
2022/09/03 02:23:38;;;;;;;;;;;;;;;16.03;49.93;101233.03;5006949;28;19921;-67
2022/09/03 02:26:04;;;;;;;;;;;;;;;15.95;50.08;101226.53;5006327;28;19972;-67
2022/09/03 02:28:32;;;;;;;;;;;;;;;16.05;49.92;101230.25;5007856;28;19980;-67
2022/09/03 02:30:58;;;;;;;;;;;;;;;16.07;49.93;101231.03;5003281;28;19929;-67
2022/09/03 02:33:26;;;;;;;;;;;;;;;15.96;49.93;101228.25;4996944;28;20297;-67
2022/09/03 02:35:52;;;;;;;;;;;;;;;16.08;50.07;101225.59;5000737;28;20395;-67
2022/09/03 02:38:20;;;;;;;;;;;;;;;16.06;49.76;101213.44;5000989;28;19948;-67
2022/09/03 02:40:46;;;;;;;;;;;;;;;15.86;50.38;101217.41;5005991;28;19921;-67
2022/09/03 02:43:16;;;;;;;;;;;;;;;15.51;51.59;101216.22;5006834;28;19921;-67
2022/09/03 02:45:45;;;;;;;;;;;;;;;15.74;50.82;101222.66;5007635;28;19929;-67
2022/09/03 02:48:11;;;;;;;;;;;;;;;15.49;51.50;101218.97;5005171;28;19971;-69
2022/09/03 02:50:41;;;;;;;;;;;;;;;15.66;50.99;101214.38;5005623;28;20361;-68
2022/09/03 02:53:08;;;;;;;;;;;;;;;15.85;50.47;101222.81;5007363;28;20077;-68
2022/09/03 02:55:34;;;;;;;;;;;;;;;15.76;50.84;101223.41;5005324;28;20408;-67
2022/09/03 02:58:00;;;;;;;;;;;;;;;15.47;51.78;101220.84;4997049;28;19925;-67
2022/09/03 03:00:27;;;;;;;;;;;;;;;15.30;52.26;101215.75;5022652;28;19976;-67
2022/09/03 03:02:54;;;;;;;;;;;;;;;15.10;52.59;101216.19;5005047;28;20308;-67
2022/09/03 03:05:24;;;;;;;;;;;;;;;15.39;51.94;101220.47;5004539;28;19921;-67
2022/09/03 03:07:52;;;;;;;;;;;;;;;15.33;52.08;101226.16;5006556;28;20381;-67
2022/09/03 03:10:18;;;;;;;;;;;;;;;15.24;52.74;101224.09;5005687;28;19961;-69
2022/09/03 03:12:44;;;;;;;;;;;;;;;15.32;52.23;101224.44;5000827;28;20351;-68
2022/09/03 03:15:10;;;;;;;;;;;;;;;15.36;52.25;101231.25;4996614;28;19980;-68
2022/09/03 03:17:36;;;;;;;;;;;;;;;15.29;52.17;101231.72;5006409;28;19964;-68
2022/09/03 03:20:03;;;;;;;;;;;;;;;15.26;52.92;101231.94;5004657;28;19921;-68
2022/09/03 03:22:29;;;;;;;;;;;;;;;15.10;53.03;101235.53;5006345;28;19929;-68
2022/09/03 03:24:57;;;;;;;;;;;;;;;15.12;53.23;101235.41;5005405;28;19956;-67
2022/09/03 03:27:23;;;;;;;;;;;;;;;15.12;53.20;101230.13;5004379;28;20369;-67
2022/09/03 03:29:50;;;;;;;;;;;;;;;15.13;53.21;101237.13;5006302;28;19927;-67
2022/09/03 03:32:16;;;;;;;;;;;;;;;14.96;53.65;101229.41;4998578;28;20011;-67
2022/09/03 03:34:43;;;;;;;;;;;;;;;15.05;53.52;101234.09;4994203;28;20035;-67
2022/09/03 03:37:09;;;;;;;;;;;;;;;15.06;53.51;101227.88;5007175;28;19964;-67
2022/09/03 03:39:35;;;;;;;;;;;;;;;15.09;53.75;101231.19;4990724;28;20031;-67
2022/09/03 03:42:03;;;;;;;;;;;;;;;14.78;54.56;101230.53;4991859;28;19960;-67
2022/09/03 03:44:29;;;;;;;;;;;;;;;15.02;53.95;101229.88;5007427;28;20027;-67
2022/09/03 03:46:55;;;;;;;;;;;;;;;15.22;53.48;101223.34;5006741;28;19921;-68
2022/09/03 03:49:21;;;;;;;;;;;;;;;15.36;52.83;101223.31;5005666;28;19949;-68
2022/09/03 03:51:48;;;;;;;;;;;;;;;15.38;53.16;101224.06;5003994;28;19921;-68
2022/09/03 03:54:14;;;;;;;;;;;;;;;15.34;53.04;101230.47;5003762;28;19991;-68
2022/09/03 03:56:40;;;;;;;;;;;;;;;15.58;52.48;101223.66;5005798;28;19921;-68
2022/09/03 03:59:08;;;;;;;;;;;;;;;15.16;53.52;101223.72;4993011;28;20385;-68
2022/09/03 04:01:34;;;;;;;;;;;;;;;15.15;53.70;101232.56;5004056;28;19957;-68
2022/09/03 04:04:00;;;;;;;;;;;;;;;15.09;53.96;101230.31;5006238;28;20015;-68
2022/09/03 04:06:27;;;;;;;;;;;;;;;15.38;53.30;101224.06;5004941;28;19975;-68
2022/09/03 04:08:53;;;;;;;;;;;;;;;15.26;53.47;101227.47;5004885;28;20515;-68
2022/09/03 04:11:21;;;;;;;;;;;;;;;15.47;53.21;101222.63;5006358;28;19972;-68
2022/09/03 04:13:47;;;;;;;;;;;;;;;15.20;53.96;101225.22;5005221;28;19929;-68
2022/09/03 04:16:17;;;;;;;;;;;;;;;15.47;53.08;101218.19;5006164;28;19972;-68
2022/09/03 04:18:43;;;;;;;;;;;;;;;15.34;53.22;101219.91;5005807;28;19921;-68
2022/09/03 04:21:11;;;;;;;;;;;;;;;15.56;52.58;101224.69;5003651;28;19921;-68
2022/09/03 04:23:38;;;;;;;;;;;;;;;15.28;53.34;101217.66;5004621;28;19922;-68
2022/09/03 04:26:05;;;;;;;;;;;;;;;15.23;53.88;101221.53;5006297;28;20019;-68
2022/09/03 04:28:31;;;;;;;;;;;;;;;15.35;53.42;101224.25;5005209;28;19921;-68
2022/09/03 04:31:00;;;;;;;;;;;;;;;15.27;53.73;101223.03;5003511;28;19921;-68
2022/09/03 04:33:28;;;;;;;;;;;;;;;15.17;54.26;101220.13;4994511;28;19976;-68
2022/09/03 04:36:00;;;;;;;;;;;;;;;15.11;54.30;101223.19;5004092;28;20029;-68
2022/09/03 04:38:28;;;;;;;;;;;;;;;15.16;54.19;101215.78;5002940;28;19979;-68
2022/09/03 04:40:55;;;;;;;;;;;;;;;15.03;54.50;101223.66;4998482;28;19926;-68
2022/09/03 04:43:21;;;;;;;;;;;;;;;14.95;55.27;101215.34;5004987;28;19944;-68
2022/09/03 04:45:47;;;;;;;;;;;;;;;14.96;54.82;101214.41;5008257;28;19961;-68
2022/09/03 04:48:13;;;;;;;;;;;;;;;14.92;55.10;101223.47;5008222;28;19953;-68
2022/09/03 04:50:41;;;;;;;;;;;;;;;14.92;54.74;101218.19;5009190;28;19979;-68
2022/09/03 04:53:07;;;;;;;;;;;;;;;14.83;55.43;101229.31;5008687;28;20353;-68
2022/09/03 04:55:34;;;;;;;;;;;;;;;14.80;55.85;101233.94;5009959;28;19925;-68
2022/09/03 04:58:00;;;;;;;;;;;;;;;14.92;55.31;101227.91;5005995;28;19951;-68
2022/09/03 05:00:27;;;;;;;;;;;;;;;15.20;54.39;101234.94;5007942;28;19956;-68
2022/09/03 05:02:53;;;;;;;;;;;;;;;15.27;54.25;101220.38;5010248;28;20490;-68
2022/09/03 05:05:19;;;;;;;;;;;;;;;15.28;54.33;101219.44;5005229;28;19965;-68
2022/09/03 05:07:47;;;;;;;;;;;;;;;15.02;55.13;101229.88;4994831;28;20035;-68
2022/09/03 05:10:19;;;;;;;;;;;;;;;14.85;55.81;101229.22;4994239;28;19921;-68
2022/09/03 05:12:45;;;;;;;;;;;;;;;14.99;55.39;101224.78;5008671;28;20361;-68
2022/09/03 05:15:11;;;;;;;;;;;;;;;14.99;55.13;101224.78;5008431;28;20336;-69
2022/09/03 05:17:38;;;;;;;;;;;;;;;14.95;55.91;101230.34;5006743;28;19961;-69
2022/09/03 05:20:05;;;;;;;;;;;;;;;14.96;55.76;101234.69;5008435;28;20016;-68
2022/09/03 05:22:31;;;;;;;;;;;;;;;14.82;56.19;101232.06;5008065;28;20428;-68
2022/09/03 05:24:58;;;;;;;;;;;;;;;14.88;56.21;101235.16;5009875;28;19969;-68
2022/09/03 05:27:25;;;;;;;;;;;;;;;15.02;56.20;101235.16;5007791;28;20019;-68
2022/09/03 05:29:51;;;;;;;;;;;;;;;15.04;56.06;101227.13;5009185;28;19965;-68
2022/09/03 05:32:17;;;;;;;;;;;;;;;14.98;56.48;101232.78;5009806;28;20362;-68
2022/09/03 05:34:43;;;;;;;;;;;;;;;15.16;56.19;101226.34;5001838;28;20346;-68
2022/09/03 05:37:10;;;;;;;;;;;;;;;15.38;55.98;101226.69;4999745;28;19968;-68
2022/09/03 05:39:36;;;;;;;;;;;;;;;15.69;54.77;101214.19;4997165;28;19925;-68
2022/09/03 05:42:04;;;;;;;;;;;;;;;15.96;54.13;101223.78;5005419;28;20394;-68
2022/09/03 05:44:30;;;;;;;;;;;;;;;16.51;52.71;101220.06;5007232;28;19921;-68
2022/09/03 05:46:56;;;;;;;;;;;;;;;16.65;52.47;101225.28;5001319;28;20331;-69
2022/09/03 05:49:23;;;;;;;;;;;;;;;17.01;52.05;101230.66;4992885;28;19999;-68
2022/09/03 05:51:49;;;;;;;;;;;;;;;17.59;50.43;101221.19;5007939;28;19921;-68
2022/09/03 05:54:15;;;;;;;;;;;;;;;18.06;49.17;101230.94;5007476;28;19933;-68
2022/09/03 05:56:42;;;;;;;;;;;;;;;18.43;47.21;101223.69;5007991;28;19921;-67
2022/09/03 05:59:10;;;;;;;;;;;;;;;18.44;47.49;101218.25;5008060;28;19921;-67
2022/09/03 06:01:37;;;;;;;;;;;;;;;18.57;47.02;101227.97;4993609;28;19971;-68
2022/09/03 06:04:04;;;;;;;;;;;;;;;18.13;49.34;101232.19;5002365;28;20423;-68
2022/09/03 06:06:31;;;;;;;;;;;;;;;18.63;47.62;101224.81;5006583;28;19976;-68
2022/09/03 06:08:58;;;;;;;;;;;;;;;18.78;46.80;101234.25;5008322;28;19921;-68
2022/09/03 06:11:27;;;;;;;;;;;;;;;18.61;47.60;101232.94;5004181;28;20431;-68
2022/09/03 06:13:53;;;;;;;;;;;;;;;18.40;49.10;101231.91;5007105;28;19945;-68
2022/09/03 06:16:21;;;;;;;;;;;;;;;17.74;49.90;101237.78;5006785;28;19921;-68
2022/09/03 06:18:47;;;;;;;;;;;;;;;17.82;50.80;101238.06;5005437;28;19926;-67
2022/09/03 06:21:14;;;;;;;;;;;;;;;18.17;49.56;101227.47;5007461;28;19921;-67
2022/09/03 06:23:41;;;;;;;;;;;;;;;18.90;47.40;101223.53;5008045;28;19922;-67
2022/09/03 06:26:08;;;;;;;;;;;;;;;19.24;46.72;101228.84;4999092;28;19929;-67
2022/09/03 06:28:35;;;;;;;;;;;;;;;19.62;46.38;101234.56;4997302;28;19984;-67
2022/09/03 06:31:02;;;;;;;;;;;;;;;19.75;45.49;101231.75;4999708;28;19988;-67
2022/09/03 06:33:30;;;;;;;;;;;;;;;20.17;44.83;101228.22;5002763;28;20435;-67
2022/09/03 06:35:58;;;;;;;;;;;;;;;19.96;44.82;101234.44;5006923;28;20160;-67
2022/09/03 06:38:24;;;;;;;;;;;;;;;20.50;43.27;101237.84;4999170;28;20350;-67
2022/09/03 06:40:54;;;;;;;;;;;;;;;20.87;42.41;101233.72;5000560;28;19921;-68
2022/09/03 06:43:21;;;;;;;;;;;;;;;21.28;42.62;101223.94;5006052;28;19921;-67
2022/09/03 06:45:54;;;;;;;;;;;;;;;21.69;41.43;101231.72;5007713;28;19964;-67
2022/09/03 06:48:20;;;;;;;;;;;;;;;19.88;44.39;101235.13;4987274;28;20391;-67
2022/09/03 06:50:54;;;;;;;;;;;;;;;19.99;44.12;101237.75;5003084;28;19921;-67
2022/09/03 06:53:22;;;;;;;;;;;;;;;20.59;44.07;101236.19;5004514;28;20328;-67
2022/09/03 06:55:52;;;;;;;;;;;;;;;21.49;42.20;101238.03;5004880;28;19957;-67
2022/09/03 06:58:18;;;;;;;;;;;;;;;22.14;41.18;101241.88;5004693;28;20384;-67
2022/09/03 07:00:44;;;;;;;;;;;;;;;22.13;41.27;101234.88;5006375;28;19921;-67
2022/09/03 07:03:10;;;;;;;;;;;;;;;22.45;40.32;101231.88;5006900;28;19960;-67
2022/09/03 07:05:37;;;;;;;;;;;;;;;22.43;39.95;101236.53;5006260;28;20304;-67
2022/09/03 07:08:05;;;;;;;;;;;;;;;22.41;40.15;101241.16;5005694;28;19922;-67
2022/09/03 07:10:33;;;;;;;;;;;;;;;22.90;38.14;101251.63;5001996;28;19921;-67
2022/09/03 07:12:59;;;;;;;;;;;;;;;22.50;39.08;101248.31;5000591;28;19927;-67
2022/09/03 07:15:26;;;;;;;;;;;;;;;22.25;39.48;101244.41;5005456;28;19921;-67
2022/09/03 07:17:52;;;;;;;;;;;;;;;22.14;39.27;101242.72;5007100;28;20045;-67
2022/09/03 07:20:19;;;;;;;;;;;;;;;22.67;38.97;101240.44;5007272;28;19975;-67
2022/09/03 07:22:45;;;;;;;;;;;;;;;23.50;37.02;101236.03;5003553;28;20453;-67
2022/09/03 07:25:13;;;;;;;;;;;;;;;23.84;36.59;101237.03;5005555;28;19922;-67
2022/09/03 07:27:39;;;;;;;;;;;;;;;23.38;37.76;101237.19;5005796;28;19926;-67
2022/09/03 07:30:08;;;;;;;;;;;;;;;22.64;38.13;101245.19;5000099;28;19956;-67
2022/09/03 07:32:39;;;;;;;;;;;;;;;22.61;38.01;101250.84;5007008;28;19972;-67
2022/09/03 07:35:06;;;;;;;;;;;;;;;22.72;37.92;101248.03;5007119;28;19949;-68
2022/09/03 07:37:32;;;;;;;;;;;;;;;23.18;37.45;101249.81;5005533;28;19921;-67
2022/09/03 07:40:04;;;;;;;;;;;;;;;23.32;37.42;101243.94;5004924;28;20521;-67
2022/09/03 07:42:34;;;;;;;;;;;;;;;23.55;37.03;101247.09;5006306;28;19922;-67
2022/09/03 07:45:04;;;;;;;;;;;;;;;24.08;36.39;101233.75;5006485;28;20285;-67
2022/09/03 07:47:31;;;;;;;;;;;;;;;24.89;34.44;101248.63;5005499;28;20000;-67
2022/09/03 07:49:57;;;;;;;;;;;;;;;24.65;35.16;101248.44;5003007;28;20627;-67
2022/09/03 07:52:24;;;;;;;;;;;;;;;24.18;34.74;101242.56;5003828;28;19925;-67
2022/09/03 07:54:50;;;;;;;;;;;;;;;23.86;35.15;101234.22;5005707;28;19944;-67
2022/09/03 07:57:16;;;;;;;;;;;;;;;24.15;34.98;101248.22;5005064;28;20348;-67
2022/09/03 07:59:44;;;;;;;;;;;;;;;22.91;37.09;101247.94;5006775;28;19976;-67
2022/09/03 08:02:10;;;;;;;;;;;;;;;23.43;36.57;101233.06;5004785;28;19922;-67
2022/09/03 08:04:37;;;;;;;;;;;;;;;22.86;37.83;101242.22;5001639;28;20387;-67
2022/09/03 08:07:04;;;;;;;;;;;;;;;23.34;37.00;101233.13;5001612;28;19921;-67
2022/09/03 08:09:31;;;;;;;;;;;;;;;22.87;37.51;101237.72;5006502;28;20332;-67
2022/09/03 08:11:58;;;;;;;;;;;;;;;23.41;36.34;101239.56;4997017;28;19989;-66
2022/09/03 08:14:24;;;;;;;;;;;;;;;23.99;35.88;101231.97;4997341;28;19964;-66
2022/09/03 08:16:51;;;;;;;;;;;;;;;24.23;35.27;101234.91;5008208;28;19969;-66
2022/09/03 08:19:18;;;;;;;;;;;;;;;24.82;34.27;101244.88;5024662;28;19952;-67
2022/09/03 08:21:44;;;;;;;;;;;;;;;25.54;33.77;101235.50;4999052;28;20025;-67
2022/09/03 08:24:11;;;;;;;;;;;;;;;25.32;33.79;101230.69;5008680;28;19928;-67
2022/09/03 08:26:40;;;;;;;;;;;;;;;25.18;33.19;101235.69;5009038;28;19964;-67
2022/09/03 08:29:07;;;;;;;;;;;;;;;24.13;35.11;101234.97;5010247;28;19944;-67
2022/09/03 08:31:34;;;;;;;;;;;;;;;24.73;34.64;101227.03;5013832;28;19921;-66
2022/09/03 08:34:05;;;;;;;;;;;;;;;24.88;33.99;101236.19;5008486;28;20189;-66
2022/09/03 08:36:32;;;;;;;;;;;;;;;24.21;35.15;101237.72;5009000;28;19927;-67
2022/09/03 08:39:03;;;;;;;;;;;;;;;24.97;33.80;101232.59;5008405;28;19964;-66
2022/09/03 08:41:33;;;;;;;;;;;;;;;25.32;32.49;101228.00;5007221;28;19929;-66
2022/09/03 08:44:06;;;;;;;;;;;;;;;25.60;32.44;101226.78;5007806;28;20369;-66
2022/09/03 08:46:38;;;;;;;;;;;;;;;25.37;32.71;101223.84;5014167;28;20019;-66
2022/09/03 08:49:07;;;;;;;;;;;;;;;26.10;31.31;101222.13;5020730;28;20018;-66
2022/09/03 08:51:39;;;;;;;;;;;;;;;25.54;32.42;101225.59;5008080;28;19991;-66
2022/09/03 08:54:07;;;;;;;;;;;;;;;25.67;31.95;101228.66;5006474;28;19921;-66
2022/09/03 08:56:37;;;;;;;;;;;;;;;25.57;31.13;101219.88;5008286;28;19922;-66
2022/09/03 08:59:04;;;;;;;;;;;;;;;25.77;31.79;101224.97;5008776;28;20296;-66
2022/09/03 09:01:36;;;;;;;;;;;;;;;24.77;32.83;101228.41;4989144;28;19921;-66
2022/09/03 09:04:10;;;;;;;;;;;;;;;25.34;33.23;101228.69;4994453;28;19964;-66
2022/09/03 09:06:40;;;;;;;;;;;;;;;26.06;31.55;101214.56;4996374;28;19965;-66
2022/09/03 09:09:13;;;;;;;;;;;;;;;25.66;30.97;101215.38;5000203;28;19972;-66
2022/09/03 09:11:45;;;;;;;;;;;;;;;26.33;30.45;101213.41;5007717;28;19929;-66
2022/09/03 09:14:16;;;;;;;;;;;;;;;26.21;30.54;101217.44;5006176;28;19932;-66
2022/09/03 09:16:44;;;;;;;;;;;;;;;25.53;31.20;101197.06;5015873;28;19983;-66
2022/09/03 09:19:18;;;;;;;;;;;;;;;25.86;31.53;101197.97;5011410;28;20439;-65
2022/09/03 09:21:48;;;;;;;;;;;;;;;26.29;31.10;101196.78;5006644;28;20345;-65
2022/09/03 09:24:20;;;;;;;;;;;;;;;27.62;29.39;101194.13;4989456;28;19976;-65
2022/09/03 09:26:48;;;;;;;;;;;;;;;27.45;28.71;101197.94;4987054;28;20362;-65
2022/09/03 09:29:15;;;;;;;;;;;;;;;27.53;29.01;101198.72;5020423;28;19921;-66
2022/09/03 09:31:43;;;;;;;;;;;;;;;27.78;27.34;101201.28;5002871;28;19988;-66
2022/09/03 09:34:10;;;;;;;;;;;;;;;26.93;27.52;101190.44;5007369;28;19921;-66
2022/09/03 09:36:42;;;;;;;;;;;;;;;26.18;29.85;101197.13;5007663;28;19921;-66
2022/09/03 09:39:09;;;;;;;;;;;;;;;26.37;28.80;101202.16;5008067;28;19922;-66
2022/09/03 09:41:35;;;;;;;;;;;;;;;26.70;27.55;101191.31;5012594;28;19943;-66
2022/09/03 09:44:04;;;;;;;;;;;;;;;27.13;27.93;101185.47;5009289;28;19921;-66
2022/09/03 09:46:34;;;;;;;;;;;;;;;27.20;28.35;101193.69;5007056;28;20008;-66
2022/09/03 09:49:00;;;;;;;;;;;;;;;25.96;28.79;101203.16;5007381;28;19960;-66
2022/09/03 09:51:29;;;;;;;;;;;;;;;25.32;28.67;101198.47;5008447;28;19928;-66
2022/09/03 09:54:04;;;;;;;;;;;;;;;25.19;28.99;101201.63;5010423;28;20293;-66
2022/09/03 09:56:30;;;;;;;;;;;;;;;25.05;28.00;101191.53;5007638;28;20373;-66
2022/09/03 09:59:03;;;;;;;;;;;;;;;25.58;27.36;101193.88;5007683;28;19925;-66
2022/09/03 10:01:30;;;;;;;;;;;;;;;25.65;26.93;101192.19;5016481;28;19933;-67
2022/09/03 10:03:57;;;;;;;;;;;;;;;26.01;26.69;101188.22;5003923;28;19944;-66
2022/09/03 10:09:11;;;;;;;;;;;;;;;25.46;26.91;101179.06;5005475;28;20143;-66
2022/09/03 10:11:39;;;;;;;;;;;;;;;25.62;26.98;101165.69;5008150;28;19921;-66
2022/09/03 10:14:08;;;;;;;;;;;;;;;26.20;26.91;101173.59;5006524;28;19921;-66
2022/09/03 10:16:37;;;;;;;;;;;;;;;26.24;27.25;101168.75;5007831;28;19921;-68
2022/09/03 10:19:06;;;;;;;;;;;;;;;25.40;27.63;101171.66;5005788;28;19961;-67
2022/09/03 10:21:41;;;;;;;;;;;;;;;26.33;26.34;101173.94;5007707;28;19957;-67
2022/09/03 10:24:30;;;;;;;;;;;;;;;25.40;27.92;101168.97;5006814;28;19925;-67
2022/09/03 10:26:57;;;;;;;;;;;;;;;25.34;28.81;101177.69;4991879;28;19922;-67
2022/09/03 10:29:28;;;;;;;;;;;;;;;25.55;28.01;101170.03;5007627;28;19961;-67
2022/09/03 10:31:59;;;;;;;;;;;;;;;24.53;28.48;101183.53;4996700;28;20349;-67
2022/09/03 10:34:33;;;;;;;;;;;;;;;24.81;29.25;101173.44;5009687;28;19925;-67
2022/09/03 10:37:02;;;;;;;;;;;;;;;24.70;28.20;101173.72;5006154;28;19956;-67
2022/09/03 10:39:40;;;;;;;;;;;;;;;23.99;29.03;101173.03;5012770;28;19921;-67
2022/09/03 10:42:14;;;;;;;;;;;;;;;23.44;30.81;101165.19;4999553;28;19984;-67
2022/09/03 10:44:48;;;;;;;;;;;;;;;24.13;29.35;101164.47;5007689;28;19969;-67
2022/09/03 10:47:24;;;;;;;;;;;;;;;24.78;28.33;101163.03;5016259;28;19925;-68
2022/09/03 10:49:55;;;;;;;;;;;;;;;24.68;27.73;101162.31;5004542;28;20453;-67
2022/09/03 10:52:27;;;;;;;;;;;;;;;25.35;28.21;101150.66;4997623;28;20093;-68
2022/09/03 10:55:07;;;;;;;;;;;;;;;25.48;27.51;101148.34;5005291;28;19937;-68
2022/09/03 10:57:39;;;;;;;;;;;;;;;25.35;27.08;101152.53;5009376;28;19921;-68
2022/09/03 11:00:08;;;;;;;;;;;;;;;24.16;28.54;101151.63;5012390;28;19928;-67
2022/09/03 11:02:53;;;;;;;;;;;;;;;24.92;27.28;101149.03;5005369;28;19992;-67
2022/09/03 11:05:21;;;;;;;;;;;;;;;25.23;27.89;101125.16;5005598;28;19921;-66
2022/09/03 11:07:49;;;;;;;;;;;;;;;25.74;27.19;101145.56;5006859;28;20497;-67
2022/09/03 11:10:19;;;;;;;;;;;;;;;25.20;27.99;101126.31;5006977;28;19921;-66
2022/09/03 11:12:50;;;;;;;;;;;;;;;25.44;26.35;101132.75;5001653;28;20026;-67
2022/09/03 11:15:23;;;;;;;;;;;;;;;25.43;27.72;101123.84;4998685;28;20413;-66
2022/09/03 11:17:55;;;;;;;;;;;;;;;25.49;27.35;101141.16;5016396;28;20413;-66
2022/09/03 11:20:23;;;;;;;;;;;;;;;25.90;26.96;101133.97;5006522;28;20377;-66
2022/09/03 11:22:51;;;;;;;;;;;;;;;25.96;26.74;101126.06;5004605;28;19925;-66
2022/09/03 11:25:20;;;;;;;;;;;;;;;26.12;25.94;101136.81;5005716;28;19922;-67
2022/09/03 11:27:53;;;;;;;;;;;;;;;25.78;26.68;101135.31;5017915;28;20285;-66
2022/09/03 11:30:23;;;;;;;;;;;;;;;24.42;28.60;101135.56;5020122;28;19921;-66
2022/09/03 11:32:53;;;;;;;;;;;;;;;24.88;28.22;101126.22;4992569;28;19949;-66
2022/09/03 11:35:25;;;;;;;;;;;;;;;25.02;28.52;101112.19;5011721;28;19925;-66
2022/09/03 11:37:53;;;;;;;;;;;;;;;25.87;26.97;101110.94;5022677;28;19925;-66
2022/09/03 11:40:28;;;;;;;;;;;;;;;26.20;26.73;101116.34;5014265;28;19947;-66
2022/09/03 11:43:04;;;;;;;;;;;;;;;25.84;27.29;101111.31;5000263;28;19979;-67
2022/09/03 11:45:35;;;;;;;;;;;;;;;26.20;26.67;101108.28;5026166;28;19960;-66
2022/09/03 11:48:01;;;;;;;;;;;;;;;25.69;26.41;101104.91;5025144;28;19925;-67
2022/09/03 11:50:29;;;;;;;;;;;;;;;25.65;26.35;101108.94;4998572;28;19922;-66
2022/09/03 11:53:07;;;;;;;;;;;;;;;25.67;25.83;101107.78;5001005;28;19921;-66
2022/09/03 11:55:49;;;;;;;;;;;;;;;25.36;26.61;101109.41;4988296;28;19926;-66
2022/09/03 11:58:19;;;;;;;;;;;;;;;24.75;27.69;101103.53;4998167;28;19972;-66
2022/09/03 12:00:45;;;;;;;;;;;;;;;25.21;27.51;101094.94;4987557;28;19968;-66
2022/09/03 12:03:15;;;;;;;;;;;;;;;25.45;27.25;101086.09;4984963;28;19929;-67
2022/09/03 12:05:47;;;;;;;;;;;;;;;26.04;27.31;101082.22;4986803;28;19922;-67
2022/09/03 12:08:37;;;;;;;;;;;;;;;26.07;26.70;101098.84;4999668;28;20004;-67
2022/09/03 12:11:24;;;;;;;;;;;;;;;25.68;26.93;101087.97;4985514;28;19922;-67
2022/09/03 12:13:54;;;;;;;;;;;;;;;25.46;28.05;101077.03;4981408;28;20483;-67
2022/09/03 12:16:38;;;;;;;;;;;;;;;25.62;28.06;101095.84;5005745;28;19953;-68
2022/09/03 12:19:08;;;;;;;;;;;;;;;26.04;27.05;101091.13;4976985;28;19922;-67
2022/09/03 12:21:37;;;;;;;;;;;;;;;26.72;26.34;101081.72;4993104;28;19961;-67
2022/09/03 12:24:03;;;;;;;;;;;;;;;26.32;26.96;101091.59;5018583;28;19979;-67
2022/09/03 12:26:38;;;;;;;;;;;;;;;25.71;26.75;101084.13;5024894;28;20325;-67
2022/09/03 12:29:06;;;;;;;;;;;;;;;25.69;27.00;101083.44;5020171;28;20289;-67
2022/09/03 12:31:43;;;;;;;;;;;;;;;25.47;26.47;101078.69;5004127;28;19926;-67
2022/09/03 12:34:11;;;;;;;;;;;;;;;26.16;25.80;101075.50;5016152;28;19928;-67
2022/09/03 12:36:39;;;;;;;;;;;;;;;25.91;26.60;101071.16;5004361;28;19921;-67
2022/09/03 12:39:08;;;;;;;;;;;;;;;26.06;26.66;101081.03;4992214;28;19991;-67
2022/09/03 12:41:36;;;;;;;;;;;;;;;26.45;26.01;101075.78;4989104;28;19922;-67
2022/09/03 12:44:03;;;;;;;;;;;;;;;26.38;26.43;101073.94;5003303;28;19979;-67
2022/09/03 12:46:30;;;;;;;;;;;;;;;26.68;26.38;101054.28;5005975;28;19937;-67